sensor_id;sensor_type;location;lat;lon;timestamp;P1;durP1;ratioP1;P2;durP2;ratioP2
48805;SDS011;34625;47.176;27.548;2023-02-28T00:01:28;6.80;;;4.93;;
48805;SDS011;34625;47.176;27.548;2023-02-28T00:03:55;6.43;;;4.82;;
48805;SDS011;34625;47.176;27.548;2023-02-28T00:06:21;5.32;;;4.60;;
48805;SDS011;34625;47.176;27.548;2023-02-28T00:08:47;5.63;;;4.43;;
48805;SDS011;34625;47.176;27.548;2023-02-28T00:11:14;7.93;;;5.05;;
48805;SDS011;34625;47.176;27.548;2023-02-28T00:13:42;6.78;;;4.88;;
48805;SDS011;34625;47.176;27.548;2023-02-28T00:16:17;5.55;;;4.80;;
48805;SDS011;34625;47.176;27.548;2023-02-28T00:18:46;7.22;;;4.90;;
48805;SDS011;34625;47.176;27.548;2023-02-28T00:21:15;6.88;;;4.65;;
48805;SDS011;34625;47.176;27.548;2023-02-28T00:23:41;6.80;;;4.90;;
48805;SDS011;34625;47.176;27.548;2023-02-28T00:26:07;6.13;;;4.60;;
48805;SDS011;34625;47.176;27.548;2023-02-28T00:28:33;6.07;;;4.47;;
48805;SDS011;34625;47.176;27.548;2023-02-28T00:30:59;6.70;;;4.82;;
48805;SDS011;34625;47.176;27.548;2023-02-28T00:33:26;6.38;;;4.53;;
48805;SDS011;34625;47.176;27.548;2023-02-28T00:36:00;6.65;;;4.88;;
48805;SDS011;34625;47.176;27.548;2023-02-28T00:38:28;4.95;;;4.28;;
48805;SDS011;34625;47.176;27.548;2023-02-28T00:40:54;6.47;;;4.72;;
48805;SDS011;34625;47.176;27.548;2023-02-28T00:43:20;6.05;;;4.65;;
48805;SDS011;34625;47.176;27.548;2023-02-28T00:45:46;6.88;;;4.53;;
48805;SDS011;34625;47.176;27.548;2023-02-28T00:48:12;5.72;;;4.43;;
48805;SDS011;34625;47.176;27.548;2023-02-28T00:50:38;6.78;;;4.63;;
48805;SDS011;34625;47.176;27.548;2023-02-28T00:53:04;5.55;;;4.45;;
48805;SDS011;34625;47.176;27.548;2023-02-28T00:55:30;4.82;;;4.32;;
48805;SDS011;34625;47.176;27.548;2023-02-28T00:57:56;6.10;;;4.80;;
48805;SDS011;34625;47.176;27.548;2023-02-28T01:00:22;5.28;;;4.40;;
48805;SDS011;34625;47.176;27.548;2023-02-28T01:02:49;7.82;;;4.32;;
48805;SDS011;34625;47.176;27.548;2023-02-28T01:05:15;7.00;;;4.80;;
48805;SDS011;34625;47.176;27.548;2023-02-28T01:07:41;5.95;;;4.30;;
48805;SDS011;34625;47.176;27.548;2023-02-28T01:10:07;7.03;;;4.60;;
48805;SDS011;34625;47.176;27.548;2023-02-28T01:12:34;5.90;;;4.20;;
48805;SDS011;34625;47.176;27.548;2023-02-28T01:15:00;6.03;;;4.45;;
48805;SDS011;34625;47.176;27.548;2023-02-28T01:17:26;6.60;;;4.40;;
48805;SDS011;34625;47.176;27.548;2023-02-28T01:19:53;6.20;;;4.35;;
48805;SDS011;34625;47.176;27.548;2023-02-28T01:22:20;5.88;;;4.63;;
48805;SDS011;34625;47.176;27.548;2023-02-28T01:24:46;5.35;;;4.32;;
48805;SDS011;34625;47.176;27.548;2023-02-28T01:27:13;7.00;;;4.30;;
48805;SDS011;34625;47.176;27.548;2023-02-28T01:29:39;5.15;;;4.28;;
48805;SDS011;34625;47.176;27.548;2023-02-28T01:32:05;6.25;;;4.18;;
48805;SDS011;34625;47.176;27.548;2023-02-28T01:34:31;4.90;;;3.92;;
48805;SDS011;34625;47.176;27.548;2023-02-28T01:36:57;5.97;;;4.32;;
48805;SDS011;34625;47.176;27.548;2023-02-28T01:39:24;4.85;;;4.22;;
48805;SDS011;34625;47.176;27.548;2023-02-28T01:41:51;5.40;;;4.00;;
48805;SDS011;34625;47.176;27.548;2023-02-28T01:47:25;8.25;;;4.13;;
48805;SDS011;34625;47.176;27.548;2023-02-28T01:49:56;8.02;;;4.28;;
48805;SDS011;34625;47.176;27.548;2023-02-28T01:52:23;6.93;;;4.05;;
48805;SDS011;34625;47.176;27.548;2023-02-28T01:54:54;4.90;;;3.83;;
48805;SDS011;34625;47.176;27.548;2023-02-28T01:57:23;6.45;;;4.60;;
48805;SDS011;34625;47.176;27.548;2023-02-28T01:59:59;5.97;;;3.90;;
48805;SDS011;34625;47.176;27.548;2023-02-28T02:02:38;6.28;;;3.78;;
48805;SDS011;34625;47.176;27.548;2023-02-28T02:05:14;5.45;;;4.13;;
48805;SDS011;34625;47.176;27.548;2023-02-28T02:07:43;5.40;;;3.88;;
48805;SDS011;34625;47.176;27.548;2023-02-28T02:15:24;6.10;;;4.40;;
48805;SDS011;34625;47.176;27.548;2023-02-28T02:17:59;4.22;;;3.80;;
48805;SDS011;34625;47.176;27.548;2023-02-28T02:20:40;6.38;;;4.05;;
48805;SDS011;34625;47.176;27.548;2023-02-28T02:32:19;8.48;;;4.50;;
48805;SDS011;34625;47.176;27.548;2023-02-28T02:34:56;5.68;;;4.57;;
48805;SDS011;34625;47.176;27.548;2023-02-28T02:40:11;5.75;;;4.72;;
48805;SDS011;34625;47.176;27.548;2023-02-28T02:42:49;5.90;;;4.50;;
48805;SDS011;34625;47.176;27.548;2023-02-28T02:45:17;4.40;;;3.75;;
48805;SDS011;34625;47.176;27.548;2023-02-28T02:47:53;4.82;;;4.32;;
48805;SDS011;34625;47.176;27.548;2023-02-28T02:50:26;6.90;;;4.45;;
48805;SDS011;34625;47.176;27.548;2023-02-28T02:53:00;5.60;;;4.07;;
48805;SDS011;34625;47.176;27.548;2023-02-28T02:55:29;5.20;;;4.40;;
48805;SDS011;34625;47.176;27.548;2023-02-28T02:58:00;5.55;;;4.10;;
48805;SDS011;34625;47.176;27.548;2023-02-28T03:00:30;6.07;;;4.63;;
48805;SDS011;34625;47.176;27.548;2023-02-28T03:03:01;7.43;;;4.43;;
48805;SDS011;34625;47.176;27.548;2023-02-28T03:05:30;6.00;;;4.82;;
48805;SDS011;34625;47.176;27.548;2023-02-28T03:08:06;6.38;;;4.28;;
48805;SDS011;34625;47.176;27.548;2023-02-28T03:16:00;6.45;;;4.93;;
48805;SDS011;34625;47.176;27.548;2023-02-28T03:18:36;5.75;;;4.70;;
48805;SDS011;34625;47.176;27.548;2023-02-28T03:26:37;6.82;;;5.22;;
48805;SDS011;34625;47.176;27.548;2023-02-28T03:31:41;7.95;;;4.65;;
48805;SDS011;34625;47.176;27.548;2023-02-28T03:34:14;4.53;;;4.05;;
48805;SDS011;34625;47.176;27.548;2023-02-28T03:36:57;6.78;;;4.82;;
48805;SDS011;34625;47.176;27.548;2023-02-28T03:39:37;6.78;;;4.60;;
48805;SDS011;34625;47.176;27.548;2023-02-28T03:44:55;5.60;;;4.05;;
48805;SDS011;34625;47.176;27.548;2023-02-28T03:47:41;5.47;;;4.60;;
48805;SDS011;34625;47.176;27.548;2023-02-28T03:52:43;5.85;;;4.57;;
48805;SDS011;34625;47.176;27.548;2023-02-28T03:55:28;5.93;;;4.60;;
48805;SDS011;34625;47.176;27.548;2023-02-28T03:57:59;5.47;;;4.85;;
48805;SDS011;34625;47.176;27.548;2023-02-28T04:00:35;7.50;;;5.60;;
48805;SDS011;34625;47.176;27.548;2023-02-28T04:03:05;6.20;;;4.32;;
48805;SDS011;34625;47.176;27.548;2023-02-28T04:05:31;7.75;;;5.35;;
48805;SDS011;34625;47.176;27.548;2023-02-28T04:08:04;9.18;;;5.70;;
48805;SDS011;34625;47.176;27.548;2023-02-28T04:10:32;8.75;;;5.60;;
48805;SDS011;34625;47.176;27.548;2023-02-28T04:12:58;7.20;;;5.32;;
48805;SDS011;34625;47.176;27.548;2023-02-28T04:15:24;7.03;;;5.38;;
48805;SDS011;34625;47.176;27.548;2023-02-28T04:17:52;8.57;;;5.40;;
48805;SDS011;34625;47.176;27.548;2023-02-28T04:20:18;8.82;;;6.10;;
48805;SDS011;34625;47.176;27.548;2023-02-28T04:22:44;8.10;;;5.57;;
48805;SDS011;34625;47.176;27.548;2023-02-28T04:25:10;8.73;;;5.57;;
48805;SDS011;34625;47.176;27.548;2023-02-28T04:27:36;7.65;;;5.72;;
48805;SDS011;34625;47.176;27.548;2023-02-28T04:30:02;8.27;;;5.07;;
48805;SDS011;34625;47.176;27.548;2023-02-28T04:32:28;8.73;;;5.82;;
48805;SDS011;34625;47.176;27.548;2023-02-28T04:34:54;5.68;;;4.63;;
48805;SDS011;34625;47.176;27.548;2023-02-28T04:37:20;7.97;;;5.72;;
48805;SDS011;34625;47.176;27.548;2023-02-28T04:39:53;11.13;;;6.03;;
48805;SDS011;34625;47.176;27.548;2023-02-28T04:42:18;7.50;;;5.53;;
48805;SDS011;34625;47.176;27.548;2023-02-28T04:44:44;9.48;;;5.70;;
48805;SDS011;34625;47.176;27.548;2023-02-28T04:47:10;8.80;;;5.35;;
48805;SDS011;34625;47.176;27.548;2023-02-28T04:49:36;7.20;;;5.50;;
48805;SDS011;34625;47.176;27.548;2023-02-28T04:52:03;8.07;;;5.18;;
48805;SDS011;34625;47.176;27.548;2023-02-28T04:54:29;8.63;;;5.68;;
48805;SDS011;34625;47.176;27.548;2023-02-28T04:56:55;7.07;;;5.47;;
48805;SDS011;34625;47.176;27.548;2023-02-28T04:59:21;8.63;;;5.68;;
48805;SDS011;34625;47.176;27.548;2023-02-28T05:01:48;8.43;;;6.22;;
48805;SDS011;34625;47.176;27.548;2023-02-28T05:04:14;9.50;;;5.72;;
48805;SDS011;34625;47.176;27.548;2023-02-28T05:06:40;7.05;;;5.40;;
48805;SDS011;34625;47.176;27.548;2023-02-28T05:09:06;6.95;;;5.18;;
48805;SDS011;34625;47.176;27.548;2023-02-28T05:11:33;6.78;;;4.28;;
48805;SDS011;34625;47.176;27.548;2023-02-28T05:14:03;7.95;;;5.05;;
48805;SDS011;34625;47.176;27.548;2023-02-28T05:16:31;6.18;;;4.75;;
48805;SDS011;34625;47.176;27.548;2023-02-28T05:18:57;4.75;;;3.72;;
48805;SDS011;34625;47.176;27.548;2023-02-28T05:21:31;6.28;;;3.95;;
48805;SDS011;34625;47.176;27.548;2023-02-28T05:24:03;4.28;;;3.80;;
48805;SDS011;34625;47.176;27.548;2023-02-28T05:26:33;7.70;;;4.35;;
48805;SDS011;34625;47.176;27.548;2023-02-28T05:29:01;7.47;;;4.38;;
48805;SDS011;34625;47.176;27.548;2023-02-28T05:31:27;4.82;;;4.32;;
48805;SDS011;34625;47.176;27.548;2023-02-28T05:33:53;6.45;;;4.30;;
48805;SDS011;34625;47.176;27.548;2023-02-28T05:36:19;5.25;;;3.92;;
48805;SDS011;34625;47.176;27.548;2023-02-28T05:38:47;6.80;;;4.32;;
48805;SDS011;34625;47.176;27.548;2023-02-28T05:41:13;6.20;;;4.10;;
48805;SDS011;34625;47.176;27.548;2023-02-28T05:43:39;5.20;;;3.83;;
48805;SDS011;34625;47.176;27.548;2023-02-28T05:46:06;7.32;;;4.80;;
48805;SDS011;34625;47.176;27.548;2023-02-28T05:48:34;6.68;;;4.07;;
48805;SDS011;34625;47.176;27.548;2023-02-28T05:51:01;5.90;;;3.88;;
48805;SDS011;34625;47.176;27.548;2023-02-28T05:53:28;5.88;;;4.38;;
48805;SDS011;34625;47.176;27.548;2023-02-28T05:55:54;6.00;;;4.18;;
48805;SDS011;34625;47.176;27.548;2023-02-28T05:58:20;4.10;;;3.20;;
48805;SDS011;34625;47.176;27.548;2023-02-28T06:00:47;5.38;;;3.83;;
48805;SDS011;34625;47.176;27.548;2023-02-28T06:03:13;6.28;;;3.47;;
48805;SDS011;34625;47.176;27.548;2023-02-28T06:05:39;4.65;;;3.75;;
48805;SDS011;34625;47.176;27.548;2023-02-28T06:08:05;6.47;;;4.10;;
48805;SDS011;34625;47.176;27.548;2023-02-28T06:10:35;5.57;;;4.15;;
48805;SDS011;34625;47.176;27.548;2023-02-28T06:13:01;6.10;;;4.20;;
48805;SDS011;34625;47.176;27.548;2023-02-28T06:15:28;4.38;;;3.67;;
48805;SDS011;34625;47.176;27.548;2023-02-28T06:17:55;4.90;;;4.20;;
48805;SDS011;34625;47.176;27.548;2023-02-28T06:20:22;6.15;;;4.60;;
48805;SDS011;34625;47.176;27.548;2023-02-28T06:22:49;6.40;;;4.43;;
48805;SDS011;34625;47.176;27.548;2023-02-28T06:25:16;4.53;;;4.07;;
48805;SDS011;34625;47.176;27.548;2023-02-28T06:27:43;6.88;;;4.40;;
48805;SDS011;34625;47.176;27.548;2023-02-28T06:30:10;4.43;;;4.03;;
48805;SDS011;34625;47.176;27.548;2023-02-28T06:32:37;3.72;;;3.38;;
48805;SDS011;34625;47.176;27.548;2023-02-28T06:35:03;1.10;;;1.10;;
48805;SDS011;34625;47.176;27.548;2023-02-28T06:37:30;1.10;;;1.10;;
48805;SDS011;34625;47.176;27.548;2023-02-28T06:39:57;1.90;;;1.73;;
48805;SDS011;34625;47.176;27.548;2023-02-28T06:42:23;6.93;;;4.43;;
48805;SDS011;34625;47.176;27.548;2023-02-28T06:44:54;5.97;;;4.20;;
48805;SDS011;34625;47.176;27.548;2023-02-28T06:47:21;6.10;;;4.47;;
48805;SDS011;34625;47.176;27.548;2023-02-28T06:49:47;5.25;;;4.45;;
48805;SDS011;34625;47.176;27.548;2023-02-28T06:52:13;5.75;;;4.10;;
48805;SDS011;34625;47.176;27.548;2023-02-28T06:54:39;6.15;;;3.90;;
48805;SDS011;34625;47.176;27.548;2023-02-28T06:57:06;6.63;;;4.45;;
48805;SDS011;34625;47.176;27.548;2023-02-28T06:59:32;5.70;;;4.30;;
48805;SDS011;34625;47.176;27.548;2023-02-28T07:01:58;7.47;;;4.32;;
48805;SDS011;34625;47.176;27.548;2023-02-28T07:04:24;6.38;;;4.72;;
48805;SDS011;34625;47.176;27.548;2023-02-28T07:06:50;5.00;;;3.67;;
48805;SDS011;34625;47.176;27.548;2023-02-28T07:09:16;5.55;;;4.65;;
48805;SDS011;34625;47.176;27.548;2023-02-28T07:11:44;9.05;;;5.47;;
48805;SDS011;34625;47.176;27.548;2023-02-28T07:14:10;7.47;;;4.63;;
48805;SDS011;34625;47.176;27.548;2023-02-28T07:16:36;7.68;;;4.65;;
48805;SDS011;34625;47.176;27.548;2023-02-28T07:19:02;6.65;;;4.60;;
48805;SDS011;34625;47.176;27.548;2023-02-28T07:21:28;6.28;;;3.85;;
48805;SDS011;34625;47.176;27.548;2023-02-28T07:23:55;4.53;;;3.65;;
48805;SDS011;34625;47.176;27.548;2023-02-28T07:26:22;5.72;;;3.63;;
48805;SDS011;34625;47.176;27.548;2023-02-28T07:28:48;7.30;;;4.28;;
48805;SDS011;34625;47.176;27.548;2023-02-28T07:31:15;5.65;;;4.22;;
48805;SDS011;34625;47.176;27.548;2023-02-28T07:33:42;7.95;;;5.75;;
48805;SDS011;34625;47.176;27.548;2023-02-28T07:36:13;6.40;;;4.35;;
48805;SDS011;34625;47.176;27.548;2023-02-28T07:38:41;6.07;;;4.57;;
48805;SDS011;34625;47.176;27.548;2023-02-28T07:41:09;5.25;;;4.18;;
48805;SDS011;34625;47.176;27.548;2023-02-28T07:43:35;6.18;;;4.40;;
48805;SDS011;34625;47.176;27.548;2023-02-28T07:46:05;5.93;;;4.53;;
48805;SDS011;34625;47.176;27.548;2023-02-28T07:48:33;5.93;;;4.70;;
48805;SDS011;34625;47.176;27.548;2023-02-28T07:50:59;7.18;;;4.60;;
48805;SDS011;34625;47.176;27.548;2023-02-28T07:53:26;7.93;;;4.35;;
48805;SDS011;34625;47.176;27.548;2023-02-28T07:55:59;5.13;;;3.80;;
48805;SDS011;34625;47.176;27.548;2023-02-28T07:58:26;6.32;;;4.53;;
48805;SDS011;34625;47.176;27.548;2023-02-28T08:00:54;5.65;;;4.10;;
48805;SDS011;34625;47.176;27.548;2023-02-28T08:03:21;5.55;;;4.28;;
48805;SDS011;34625;47.176;27.548;2023-02-28T08:05:48;5.07;;;4.43;;
48805;SDS011;34625;47.176;27.548;2023-02-28T08:08:15;5.50;;;3.90;;
48805;SDS011;34625;47.176;27.548;2023-02-28T08:10:42;5.10;;;4.22;;
48805;SDS011;34625;47.176;27.548;2023-02-28T08:13:08;4.88;;;3.72;;
48805;SDS011;34625;47.176;27.548;2023-02-28T08:15:34;5.75;;;4.00;;
48805;SDS011;34625;47.176;27.548;2023-02-28T08:18:01;5.35;;;4.00;;
48805;SDS011;34625;47.176;27.548;2023-02-28T08:20:27;4.90;;;4.43;;
48805;SDS011;34625;47.176;27.548;2023-02-28T08:22:53;7.47;;;4.45;;
48805;SDS011;34625;47.176;27.548;2023-02-28T08:25:19;5.93;;;4.03;;
48805;SDS011;34625;47.176;27.548;2023-02-28T08:27:45;4.63;;;3.78;;
48805;SDS011;34625;47.176;27.548;2023-02-28T08:30:12;5.45;;;4.35;;
48805;SDS011;34625;47.176;27.548;2023-02-28T08:32:39;6.45;;;3.75;;
48805;SDS011;34625;47.176;27.548;2023-02-28T08:35:06;5.32;;;3.97;;
48805;SDS011;34625;47.176;27.548;2023-02-28T08:37:34;4.72;;;3.67;;
48805;SDS011;34625;47.176;27.548;2023-02-28T08:40:00;4.57;;;3.95;;
48805;SDS011;34625;47.176;27.548;2023-02-28T08:42:26;6.72;;;4.03;;
48805;SDS011;34625;47.176;27.548;2023-02-28T08:44:52;3.58;;;2.83;;
48805;SDS011;34625;47.176;27.548;2023-02-28T08:47:18;5.20;;;3.75;;
48805;SDS011;34625;47.176;27.548;2023-02-28T08:49:44;3.20;;;2.90;;
48805;SDS011;34625;47.176;27.548;2023-02-28T08:52:10;8.35;;;4.20;;
48805;SDS011;34625;47.176;27.548;2023-02-28T08:54:36;4.32;;;3.72;;
48805;SDS011;34625;47.176;27.548;2023-02-28T08:57:03;4.25;;;3.65;;
48805;SDS011;34625;47.176;27.548;2023-02-28T08:59:29;6.72;;;4.13;;
48805;SDS011;34625;47.176;27.548;2023-02-28T09:01:58;4.43;;;3.85;;
48805;SDS011;34625;47.176;27.548;2023-02-28T09:04:24;4.80;;;4.05;;
48805;SDS011;34625;47.176;27.548;2023-02-28T09:06:50;4.65;;;3.75;;
48805;SDS011;34625;47.176;27.548;2023-02-28T09:09:16;6.00;;;3.95;;
48805;SDS011;34625;47.176;27.548;2023-02-28T09:11:42;4.97;;;4.30;;
48805;SDS011;34625;47.176;27.548;2023-02-28T09:14:08;7.53;;;3.85;;
48805;SDS011;34625;47.176;27.548;2023-02-28T09:16:34;4.97;;;4.05;;
48805;SDS011;34625;47.176;27.548;2023-02-28T09:19:00;6.35;;;3.85;;
48805;SDS011;34625;47.176;27.548;2023-02-28T09:21:26;6.40;;;4.10;;
48805;SDS011;34625;47.176;27.548;2023-02-28T09:23:53;6.10;;;4.25;;
48805;SDS011;34625;47.176;27.548;2023-02-28T09:26:20;4.50;;;3.97;;
48805;SDS011;34625;47.176;27.548;2023-02-28T09:28:48;6.57;;;4.57;;
48805;SDS011;34625;47.176;27.548;2023-02-28T09:31:15;4.72;;;3.70;;
48805;SDS011;34625;47.176;27.548;2023-02-28T09:33:48;5.82;;;3.53;;
48805;SDS011;34625;47.176;27.548;2023-02-28T09:36:15;6.00;;;3.72;;
48805;SDS011;34625;47.176;27.548;2023-02-28T09:38:42;6.35;;;3.97;;
48805;SDS011;34625;47.176;27.548;2023-02-28T09:41:12;6.40;;;4.20;;
48805;SDS011;34625;47.176;27.548;2023-02-28T09:43:41;5.15;;;4.60;;
48805;SDS011;34625;47.176;27.548;2023-02-28T09:48:50;5.95;;;4.43;;
48805;SDS011;34625;47.176;27.548;2023-02-28T09:53:54;4.97;;;4.10;;
48805;SDS011;34625;47.176;27.548;2023-02-28T09:56:22;5.22;;;4.20;;
48805;SDS011;34625;47.176;27.548;2023-02-28T09:58:54;6.00;;;3.80;;
48805;SDS011;34625;47.176;27.548;2023-02-28T10:01:40;5.30;;;4.35;;
48805;SDS011;34625;47.176;27.548;2023-02-28T10:07:21;6.65;;;4.28;;
48805;SDS011;34625;47.176;27.548;2023-02-28T10:10:04;6.15;;;3.83;;
48805;SDS011;34625;47.176;27.548;2023-02-28T10:12:44;5.38;;;4.03;;
48805;SDS011;34625;47.176;27.548;2023-02-28T10:15:14;6.07;;;4.00;;
48805;SDS011;34625;47.176;27.548;2023-02-28T10:17:43;4.95;;;3.75;;
48805;SDS011;34625;47.176;27.548;2023-02-28T10:20:14;3.80;;;3.33;;
48805;SDS011;34625;47.176;27.548;2023-02-28T10:25:40;4.95;;;4.18;;
48805;SDS011;34625;47.176;27.548;2023-02-28T10:30:38;5.13;;;3.80;;
48805;SDS011;34625;47.176;27.548;2023-02-28T10:33:15;5.38;;;3.70;;
48805;SDS011;34625;47.176;27.548;2023-02-28T10:35:48;5.00;;;3.90;;
48805;SDS011;34625;47.176;27.548;2023-02-28T10:38:16;4.50;;;3.65;;
48805;SDS011;34625;47.176;27.548;2023-02-28T10:40:49;6.25;;;3.90;;
48805;SDS011;34625;47.176;27.548;2023-02-28T10:51:10;5.75;;;3.75;;
48805;SDS011;34625;47.176;27.548;2023-02-28T10:53:39;5.00;;;3.88;;
48805;SDS011;34625;47.176;27.548;2023-02-28T10:56:16;5.65;;;4.20;;
48805;SDS011;34625;47.176;27.548;2023-02-28T11:01:40;6.97;;;2.70;;
48805;SDS011;34625;47.176;27.548;2023-02-28T11:04:16;3.22;;;2.60;;
48805;SDS011;34625;47.176;27.548;2023-02-28T11:06:58;8.32;;;3.92;;
48805;SDS011;34625;47.176;27.548;2023-02-28T11:12:00;5.00;;;3.70;;
48805;SDS011;34625;47.176;27.548;2023-02-28T11:14:31;4.70;;;3.30;;
48805;SDS011;34625;47.176;27.548;2023-02-28T11:17:11;5.03;;;4.30;;
48805;SDS011;34625;47.176;27.548;2023-02-28T11:19:44;13.45;;;4.15;;
48805;SDS011;34625;47.176;27.548;2023-02-28T11:22:16;5.05;;;4.20;;
48805;SDS011;34625;47.176;27.548;2023-02-28T11:24:59;3.03;;;2.45;;
48805;SDS011;34625;47.176;27.548;2023-02-28T11:29:59;6.60;;;5.10;;
48805;SDS011;34625;47.176;27.548;2023-02-28T11:32:29;5.10;;;3.90;;
48805;SDS011;34625;47.176;27.548;2023-02-28T11:37:34;6.70;;;4.45;;
48805;SDS011;34625;47.176;27.548;2023-02-28T11:40:01;5.75;;;4.45;;
48805;SDS011;34625;47.176;27.548;2023-02-28T11:53:59;6.88;;;4.60;;
48805;SDS011;34625;47.176;27.548;2023-02-28T12:01:58;7.63;;;4.85;;
48805;SDS011;34625;47.176;27.548;2023-02-28T12:28:38;6.38;;;5.30;;
48805;SDS011;34625;47.176;27.548;2023-02-28T12:31:14;5.90;;;4.25;;
48805;SDS011;34625;47.176;27.548;2023-02-28T12:33:46;4.22;;;2.85;;
48805;SDS011;34625;47.176;27.548;2023-02-28T12:36:18;6.22;;;3.95;;
48805;SDS011;34625;47.176;27.548;2023-02-28T12:38:53;7.75;;;3.33;;
48805;SDS011;34625;47.176;27.548;2023-02-28T12:41:45;4.63;;;2.95;;
48805;SDS011;34625;47.176;27.548;2023-02-28T12:47:02;5.55;;;4.15;;
48805;SDS011;34625;47.176;27.548;2023-02-28T12:52:28;7.88;;;4.57;;
48805;SDS011;34625;47.176;27.548;2023-02-28T12:55:35;6.13;;;4.07;;
48805;SDS011;34625;47.176;27.548;2023-02-28T13:03:37;6.95;;;4.35;;
48805;SDS011;34625;47.176;27.548;2023-02-28T13:09:09;7.72;;;4.47;;
48805;SDS011;34625;47.176;27.548;2023-02-28T13:11:43;6.95;;;4.82;;
48805;SDS011;34625;47.176;27.548;2023-02-28T13:14:28;6.18;;;4.07;;
48805;SDS011;34625;47.176;27.548;2023-02-28T13:19:30;6.10;;;4.60;;
48805;SDS011;34625;47.176;27.548;2023-02-28T13:28:57;12.45;;;5.75;;
48805;SDS011;34625;47.176;27.548;2023-02-28T13:31:11;17.15;;;6.63;;
48805;SDS011;34625;47.176;27.548;2023-02-28T13:38:54;11.57;;;6.32;;
48805;SDS011;34625;47.176;27.548;2023-02-28T13:44:02;5.70;;;4.20;;
48805;SDS011;34625;47.176;27.548;2023-02-28T13:46:35;9.35;;;4.53;;
48805;SDS011;34625;47.176;27.548;2023-02-28T14:06:15;9.93;;;4.72;;
48805;SDS011;34625;47.176;27.548;2023-02-28T14:08:51;6.43;;;5.15;;
48805;SDS011;34625;47.176;27.548;2023-02-28T14:11:25;7.85;;;4.80;;
48805;SDS011;34625;47.176;27.548;2023-02-28T14:16:58;7.93;;;5.45;;
48805;SDS011;34625;47.176;27.548;2023-02-28T14:19:28;8.70;;;5.75;;
48805;SDS011;34625;47.176;27.548;2023-02-28T14:27:45;9.68;;;5.35;;
48805;SDS011;34625;47.176;27.548;2023-02-28T14:38:24;6.18;;;3.70;;
48805;SDS011;34625;47.176;27.548;2023-02-28T14:43:21;6.70;;;4.07;;
48805;SDS011;34625;47.176;27.548;2023-02-28T14:45:50;7.10;;;4.15;;
48805;SDS011;34625;47.176;27.548;2023-02-28T14:48:19;12.25;;;6.35;;
48805;SDS011;34625;47.176;27.548;2023-02-28T14:50:51;7.85;;;5.38;;
48805;SDS011;34625;47.176;27.548;2023-02-28T14:53:26;9.90;;;5.60;;
48805;SDS011;34625;47.176;27.548;2023-02-28T14:55:54;8.55;;;5.95;;
48805;SDS011;34625;47.176;27.548;2023-02-28T15:00:52;10.32;;;6.57;;
48805;SDS011;34625;47.176;27.548;2023-02-28T15:05:59;8.85;;;5.43;;
48805;SDS011;34625;47.176;27.548;2023-02-28T15:08:27;7.53;;;5.45;;
48805;SDS011;34625;47.176;27.548;2023-02-28T15:10:59;7.97;;;5.20;;
48805;SDS011;34625;47.176;27.548;2023-02-28T15:13:36;6.80;;;5.13;;
48805;SDS011;34625;47.176;27.548;2023-02-28T15:16:10;10.32;;;5.32;;
48805;SDS011;34625;47.176;27.548;2023-02-28T15:21:31;8.68;;;5.88;;
48805;SDS011;34625;47.176;27.548;2023-02-28T15:26:32;9.07;;;6.57;;
48805;SDS011;34625;47.176;27.548;2023-02-28T15:29:07;11.38;;;7.43;;
48805;SDS011;34625;47.176;27.548;2023-02-28T15:31:53;10.13;;;6.45;;
48805;SDS011;34625;47.176;27.548;2023-02-28T15:34:38;10.60;;;6.73;;
48805;SDS011;34625;47.176;27.548;2023-02-28T15:37:26;9.18;;;5.93;;
48805;SDS011;34625;47.176;27.548;2023-02-28T15:40:14;12.20;;;6.35;;
48805;SDS011;34625;47.176;27.548;2023-02-28T15:42:41;9.30;;;5.88;;
48805;SDS011;34625;47.176;27.548;2023-02-28T15:48:04;7.28;;;4.75;;
48805;SDS011;34625;47.176;27.548;2023-02-28T15:50:31;10.32;;;5.38;;
48805;SDS011;34625;47.176;27.548;2023-02-28T15:52:57;8.45;;;5.68;;
48805;SDS011;34625;47.176;27.548;2023-02-28T15:55:24;6.38;;;4.55;;
48805;SDS011;34625;47.176;27.548;2023-02-28T15:57:53;6.80;;;4.72;;
48805;SDS011;34625;47.176;27.548;2023-02-28T16:00:25;7.15;;;4.72;;
48805;SDS011;34625;47.176;27.548;2023-02-28T16:02:52;6.57;;;5.28;;
48805;SDS011;34625;47.176;27.548;2023-02-28T16:05:36;6.75;;;5.55;;
48805;SDS011;34625;47.176;27.548;2023-02-28T16:08:12;8.23;;;5.75;;
48805;SDS011;34625;47.176;27.548;2023-02-28T16:10:40;7.13;;;5.72;;
48805;SDS011;34625;47.176;27.548;2023-02-28T16:13:08;9.98;;;6.20;;
48805;SDS011;34625;47.176;27.548;2023-02-28T16:15:41;7.35;;;5.95;;
48805;SDS011;34625;47.176;27.548;2023-02-28T16:18:09;6.88;;;5.13;;
48805;SDS011;34625;47.176;27.548;2023-02-28T16:20:37;8.02;;;5.28;;
48805;SDS011;34625;47.176;27.548;2023-02-28T16:23:04;8.25;;;5.97;;
48805;SDS011;34625;47.176;27.548;2023-02-28T16:25:38;9.18;;;5.90;;
48805;SDS011;34625;47.176;27.548;2023-02-28T16:28:17;9.60;;;6.28;;
48805;SDS011;34625;47.176;27.548;2023-02-28T16:30:46;12.00;;;7.28;;
48805;SDS011;34625;47.176;27.548;2023-02-28T16:33:12;10.48;;;7.38;;
48805;SDS011;34625;47.176;27.548;2023-02-28T16:35:38;10.65;;;7.07;;
48805;SDS011;34625;47.176;27.548;2023-02-28T16:38:04;10.80;;;7.13;;
48805;SDS011;34625;47.176;27.548;2023-02-28T16:40:33;17.50;;;9.38;;
48805;SDS011;34625;47.176;27.548;2023-02-28T16:43:00;15.40;;;8.80;;
48805;SDS011;34625;47.176;27.548;2023-02-28T16:45:31;10.85;;;7.00;;
48805;SDS011;34625;47.176;27.548;2023-02-28T16:47:57;14.65;;;9.27;;
48805;SDS011;34625;47.176;27.548;2023-02-28T16:50:25;14.57;;;8.50;;
48805;SDS011;34625;47.176;27.548;2023-02-28T16:52:53;20.20;;;11.30;;
48805;SDS011;34625;47.176;27.548;2023-02-28T16:55:22;22.77;;;11.82;;
48805;SDS011;34625;47.176;27.548;2023-02-28T16:57:56;16.75;;;10.43;;
48805;SDS011;34625;47.176;27.548;2023-02-28T17:00:24;17.65;;;9.73;;
48805;SDS011;34625;47.176;27.548;2023-02-28T17:02:51;16.20;;;10.10;;
48805;SDS011;34625;47.176;27.548;2023-02-28T17:05:17;15.57;;;9.85;;
48805;SDS011;34625;47.176;27.548;2023-02-28T17:07:44;15.93;;;9.38;;
48805;SDS011;34625;47.176;27.548;2023-02-28T17:12:41;17.33;;;10.00;;
48805;SDS011;34625;47.176;27.548;2023-02-28T17:15:12;16.45;;;10.40;;
48805;SDS011;34625;47.176;27.548;2023-02-28T17:17:39;11.77;;;7.68;;
48805;SDS011;34625;47.176;27.548;2023-02-28T17:20:09;10.18;;;7.13;;
48805;SDS011;34625;47.176;27.548;2023-02-28T17:22:38;14.27;;;7.75;;
48805;SDS011;34625;47.176;27.548;2023-02-28T17:25:04;11.95;;;7.22;;
48805;SDS011;34625;47.176;27.548;2023-02-28T17:27:30;10.77;;;7.20;;
48805;SDS011;34625;47.176;27.548;2023-02-28T17:29:56;13.05;;;7.18;;
48805;SDS011;34625;47.176;27.548;2023-02-28T17:32:22;10.73;;;6.85;;
48805;SDS011;34625;47.176;27.548;2023-02-28T17:34:49;12.23;;;7.00;;
48805;SDS011;34625;47.176;27.548;2023-02-28T17:37:15;10.63;;;7.03;;
48805;SDS011;34625;47.176;27.548;2023-02-28T17:39:41;11.35;;;7.53;;
48805;SDS011;34625;47.176;27.548;2023-02-28T17:42:06;11.68;;;7.57;;
48805;SDS011;34625;47.176;27.548;2023-02-28T17:44:33;12.55;;;8.43;;
48805;SDS011;34625;47.176;27.548;2023-02-28T17:46:59;12.43;;;7.45;;
48805;SDS011;34625;47.176;27.548;2023-02-28T17:49:25;11.88;;;7.28;;
48805;SDS011;34625;47.176;27.548;2023-02-28T17:51:51;12.05;;;7.78;;
48805;SDS011;34625;47.176;27.548;2023-02-28T17:54:17;11.82;;;8.38;;
48805;SDS011;34625;47.176;27.548;2023-02-28T17:56:43;13.00;;;8.27;;
48805;SDS011;34625;47.176;27.548;2023-02-28T17:59:09;15.15;;;8.43;;
48805;SDS011;34625;47.176;27.548;2023-02-28T18:01:36;11.52;;;7.65;;